Glasgo, Connecticut
Current Conditions -  °F | °C
As of 11:53 PM on Sunday 21 Dec 2014 (Local Time) from KWST Reporting Station
Overcast Overcast  
Wind Chill: 30°   Ceiling: 4700
Heat Index: 35°   Visibility: 10mi
Dew Point: 31°   Wind: 6mph
Humidity: 85%   Direction: 30°NNE
Pressure: 30.33"   Gusts: NA
Location:  41.56°N, 71.89°W
Report Text: KWST 220453Z AUTO 03005KT 10SM OVC047 02/M01 A3033 RMK AO2 SLP271 T00171006 400390011
Loading
Personal Weather Stations






























Interactive Weather Map New forecast layout! Learn more

10-Day Weather Forecast

Advertisements
Track Severe Weather on mobile